createdAt,value
2023-03-07T00:01:26.589Z,35.78
2023-03-07T00:03:55.337Z,31.17
2023-03-07T00:06:24.460Z,24.52
2023-03-07T00:08:54.205Z,27.33
2023-03-07T00:11:24.200Z,27.42
2023-03-07T00:13:53.288Z,28.70
2023-03-07T00:16:23.815Z,25.58
2023-03-07T00:18:52.612Z,31.27
2023-03-07T00:21:23.769Z,28.13
2023-03-07T00:23:54.173Z,30.50
2023-03-07T00:26:26.279Z,30.50
2023-03-07T00:28:55.878Z,31.42
2023-03-07T00:31:27.760Z,27.27
2023-03-07T00:34:00.116Z,29.85
2023-03-07T00:36:29.748Z,29.55
2023-03-07T00:38:59.582Z,28.85
2023-03-07T00:41:31.261Z,29.13
2023-03-07T00:44:01.270Z,33.30
2023-03-07T00:46:30.334Z,63.42
2023-03-07T00:48:59.804Z,39.38
2023-03-07T00:51:29.135Z,30.67
2023-03-07T00:53:59.533Z,42.53
2023-03-07T00:56:35.550Z,47.95
2023-03-07T00:59:08.581Z,55.60
2023-03-07T01:01:37.717Z,44.53
2023-03-07T01:04:06.615Z,32.00
2023-03-07T01:06:35.856Z,29.38
2023-03-07T01:09:07.426Z,26.52
2023-03-07T01:11:38.568Z,29.13
2023-03-07T01:14:08.263Z,27.33
2023-03-07T01:16:38.915Z,24.60
2023-03-07T01:19:12.754Z,24.90
2023-03-07T01:21:42.819Z,21.25
2023-03-07T01:24:15.472Z,23.92
2023-03-07T01:26:46.647Z,28.63
2023-03-07T01:29:17.775Z,22.35
2023-03-07T01:31:46.596Z,22.90
2023-03-07T01:34:17.465Z,23.02
2023-03-07T01:36:46.076Z,23.05
2023-03-07T01:39:17.141Z,29.98
2023-03-07T01:41:47.677Z,27.17
2023-03-07T01:44:18.992Z,26.30
2023-03-07T01:46:50.462Z,23.80
2023-03-07T01:49:32.786Z,24.30
2023-03-07T01:52:06.781Z,22.10
2023-03-07T01:54:39.874Z,24.95
2023-03-07T01:57:10.949Z,23.25
2023-03-07T01:59:44.694Z,26.65
2023-03-07T02:02:18.532Z,24.38
2023-03-07T02:04:52.575Z,29.00
2023-03-07T02:07:23.641Z,21.63
2023-03-07T02:09:54.230Z,22.00
2023-03-07T02:12:24.284Z,31.00
2023-03-07T02:14:53.831Z,25.65
2023-03-07T02:17:22.595Z,27.77
2023-03-07T02:20:05.340Z,28.40
2023-03-07T02:22:34.077Z,29.23
2023-03-07T02:25:07.799Z,28.77
2023-03-07T02:27:40.790Z,29.27
2023-03-07T02:30:13.214Z,28.08
2023-03-07T02:32:43.233Z,30.27
2023-03-07T02:35:19.000Z,24.58
2023-03-07T02:37:51.618Z,26.50
2023-03-07T02:40:24.466Z,30.92
2023-03-07T02:42:59.504Z,31.15
2023-03-07T02:45:28.335Z,34.08
2023-03-07T02:47:56.803Z,31.33
2023-03-07T02:50:25.600Z,35.15
2023-03-07T02:52:54.320Z,30.75
2023-03-07T02:55:23.287Z,34.75
2023-03-07T02:57:53.849Z,37.92
2023-03-07T03:00:23.558Z,40.00
2023-03-07T03:02:52.535Z,33.75
2023-03-07T03:05:22.089Z,36.72
2023-03-07T03:07:50.775Z,35.55
2023-03-07T03:10:19.533Z,37.92
2023-03-07T03:12:48.180Z,39.60
2023-03-07T03:15:18.653Z,37.80
2023-03-07T03:17:47.365Z,40.08
2023-03-07T03:20:17.141Z,38.33
2023-03-07T03:22:45.613Z,42.40
2023-03-07T03:25:16.388Z,41.75
2023-03-07T03:27:46.275Z,39.22
2023-03-07T03:30:18.351Z,42.28
2023-03-07T03:32:47.737Z,39.10
2023-03-07T03:35:17.043Z,40.42
2023-03-07T03:37:45.853Z,43.53
2023-03-07T03:40:17.659Z,41.65
2023-03-07T03:42:47.094Z,48.72
2023-03-07T03:45:17.494Z,44.55
2023-03-07T03:47:48.690Z,39.38
2023-03-07T03:50:17.916Z,53.65
2023-03-07T03:52:46.573Z,41.72
2023-03-07T03:55:15.820Z,36.00
2023-03-07T03:57:44.369Z,47.88
2023-03-07T04:00:16.105Z,47.63
2023-03-07T04:02:46.382Z,37.90
2023-03-07T04:05:15.892Z,44.80
2023-03-07T04:07:57.491Z,44.65
2023-03-07T04:10:25.747Z,47.80
2023-03-07T04:12:54.017Z,44.50
2023-03-07T04:15:22.237Z,40.97
2023-03-07T04:17:52.076Z,43.28
2023-03-07T04:20:21.673Z,38.95
2023-03-07T04:22:50.214Z,40.65
2023-03-07T04:25:18.539Z,45.00
2023-03-07T04:27:46.737Z,44.47
2023-03-07T04:30:15.202Z,52.08
2023-03-07T04:32:43.601Z,48.40
2023-03-07T04:35:13.256Z,44.35
2023-03-07T04:37:41.464Z,45.45
2023-03-07T04:40:10.804Z,47.25
2023-03-07T04:42:39.067Z,42.63
2023-03-07T04:45:08.857Z,44.00
2023-03-07T04:47:37.134Z,46.35
2023-03-07T04:50:05.934Z,47.80
2023-03-07T04:52:35.548Z,42.63
2023-03-07T04:55:04.048Z,39.17
2023-03-07T04:57:32.249Z,46.20
2023-03-07T05:00:00.517Z,43.30
2023-03-07T05:02:28.720Z,44.83
2023-03-07T05:04:56.988Z,43.22
2023-03-07T05:07:25.348Z,44.92
2023-03-07T05:09:54.935Z,38.90
2023-03-07T05:12:26.622Z,43.15
2023-03-07T05:14:54.892Z,44.78
2023-03-07T05:17:23.173Z,44.67
2023-03-07T05:19:51.553Z,45.22
2023-03-07T05:22:19.882Z,44.05
2023-03-07T05:24:48.137Z,43.22
2023-03-07T05:27:17.837Z,54.38
2023-03-07T05:29:46.280Z,38.70
2023-03-07T05:32:15.469Z,45.55
2023-03-07T05:34:45.197Z,41.67
2023-03-07T05:37:13.481Z,41.33
2023-03-07T05:39:41.755Z,42.03
2023-03-07T05:42:09.986Z,39.80
2023-03-07T05:44:39.726Z,42.97
2023-03-07T05:47:08.004Z,46.88
2023-03-07T05:49:36.269Z,47.05
2023-03-07T05:52:04.711Z,39.72
2023-03-07T05:54:32.930Z,42.35
2023-03-07T05:57:01.169Z,39.55
2023-03-07T05:59:29.376Z,44.08
2023-03-07T06:01:59.010Z,38.88
2023-03-07T06:04:27.380Z,37.00
2023-03-07T06:06:55.688Z,31.45
2023-03-07T06:09:25.921Z,37.58
2023-03-07T06:11:54.174Z,38.00
2023-03-07T06:14:22.441Z,38.65
2023-03-07T06:16:50.770Z,34.63
2023-03-07T06:19:20.378Z,37.92
2023-03-07T06:21:48.560Z,35.75
2023-03-07T06:24:16.795Z,34.08
2023-03-07T06:26:45.125Z,34.28
2023-03-07T06:29:13.402Z,36.67
2023-03-07T06:31:41.690Z,31.35
2023-03-07T06:34:10.142Z,35.38
2023-03-07T06:36:41.216Z,37.17
2023-03-07T06:39:09.493Z,33.70
2023-03-07T06:41:37.691Z,29.70
2023-03-07T06:44:06.088Z,27.17
2023-03-07T06:46:34.396Z,34.55
2023-03-07T06:49:02.682Z,32.28
2023-03-07T06:51:30.904Z,31.80
2023-03-07T06:54:00.529Z,33.33
2023-03-07T06:56:30.325Z,34.63
2023-03-07T06:58:58.948Z,35.17
2023-03-07T07:01:27.152Z,33.47
2023-03-07T07:03:55.350Z,31.23
2023-03-07T07:06:23.643Z,32.28
2023-03-07T07:08:56.319Z,27.33
2023-03-07T07:11:26.727Z,31.77
2023-03-07T07:13:54.997Z,33.20
2023-03-07T07:16:23.299Z,28.08
2023-03-07T07:18:53.045Z,28.80
2023-03-07T07:21:21.379Z,31.40
2023-03-07T07:23:49.599Z,36.50
2023-03-07T07:26:17.816Z,32.47
2023-03-07T07:28:47.464Z,31.08
2023-03-07T07:31:16.037Z,36.42
2023-03-07T07:33:46.377Z,39.67
2023-03-07T07:36:14.581Z,40.58
2023-03-07T07:38:42.808Z,35.13
2023-03-07T07:41:11.041Z,41.53
2023-03-07T07:43:39.381Z,35.67
2023-03-07T07:46:09.131Z,32.90
2023-03-07T07:48:37.396Z,36.22
2023-03-07T07:51:06.436Z,34.03
2023-03-07T07:53:35.876Z,36.38
2023-03-07T07:56:04.156Z,31.45
2023-03-07T07:58:32.347Z,31.77
2023-03-07T08:01:00.610Z,30.70
2023-03-07T08:03:30.205Z,34.08
2023-03-07T08:05:58.469Z,32.95
2023-03-07T08:08:26.713Z,33.78
2023-03-07T08:10:54.926Z,27.92
2023-03-07T08:13:23.401Z,29.02
2023-03-07T08:15:51.641Z,29.67
2023-03-07T08:18:19.878Z,27.55
2023-03-07T08:20:49.511Z,28.15
2023-03-07T08:23:18.010Z,32.90
2023-03-07T08:25:46.321Z,29.63
2023-03-07T08:28:14.531Z,29.33
2023-03-07T08:30:42.800Z,31.00
2023-03-07T08:33:11.010Z,31.33
2023-03-07T08:35:40.117Z,30.17
2023-03-07T08:38:10.274Z,33.53
2023-03-07T08:40:38.512Z,27.02
2023-03-07T08:43:07.982Z,25.55
2023-03-07T08:45:36.228Z,28.23
2023-03-07T08:48:04.597Z,27.92
2023-03-07T08:50:32.828Z,28.98
2023-03-07T08:53:01.049Z,32.05
2023-03-07T08:55:36.817Z,24.88
2023-03-07T08:58:05.010Z,25.30
2023-03-07T09:00:33.588Z,28.50
2023-03-07T09:03:01.814Z,28.42
2023-03-07T09:05:30.276Z,25.08
2023-03-07T09:07:58.495Z,25.65
2023-03-07T09:10:27.365Z,25.83
2023-03-07T09:12:56.954Z,23.77
2023-03-07T09:15:25.596Z,28.48
2023-03-07T09:17:53.968Z,25.83
2023-03-07T09:20:22.320Z,25.98
2023-03-07T09:22:51.716Z,27.27
2023-03-07T09:25:20.060Z,24.10
2023-03-07T09:27:49.557Z,23.42
2023-03-07T09:30:20.297Z,27.70
2023-03-07T09:32:48.671Z,27.48
2023-03-07T09:35:17.028Z,21.50
2023-03-07T09:37:45.265Z,25.48
2023-03-07T09:40:19.926Z,26.60
2023-03-07T09:42:55.982Z,28.33
2023-03-07T09:45:38.918Z,26.60
2023-03-07T09:48:49.487Z,27.67
2023-03-07T09:51:22.523Z,26.23
2023-03-07T09:53:55.833Z,24.13
2023-03-07T09:56:30.664Z,25.35
2023-03-07T09:59:13.734Z,25.90
2023-03-07T10:01:51.720Z,24.92
2023-03-07T10:04:27.876Z,22.92
2023-03-07T10:06:59.373Z,24.13
2023-03-07T10:09:29.170Z,21.23
2023-03-07T10:12:20.219Z,25.30
2023-03-07T10:15:07.908Z,25.80
2023-03-07T10:17:54.355Z,24.45
2023-03-07T10:20:31.705Z,21.95
2023-03-07T10:23:11.103Z,18.95
2023-03-07T10:25:47.212Z,22.05
2023-03-07T10:28:20.213Z,21.95
2023-03-07T10:30:49.768Z,21.00
2023-03-07T10:33:21.433Z,20.40
2023-03-07T10:35:55.030Z,20.10
2023-03-07T10:38:31.608Z,24.30
2023-03-07T10:41:03.922Z,41.63
2023-03-07T10:43:34.090Z,30.05
2023-03-07T10:46:23.936Z,18.60
2023-03-07T10:48:57.038Z,22.85
2023-03-07T10:51:39.008Z,19.10
2023-03-07T10:54:15.412Z,20.13
2023-03-07T10:56:51.939Z,23.80
2023-03-07T10:59:26.840Z,23.92
2023-03-07T11:01:58.058Z,19.02
2023-03-07T11:04:30.245Z,24.50
2023-03-07T11:07:00.622Z,19.40
2023-03-07T11:09:30.439Z,26.02
2023-03-07T11:12:00.056Z,21.33
2023-03-07T11:14:33.498Z,16.77
2023-03-07T11:17:03.379Z,19.52
2023-03-07T11:19:39.268Z,16.27
2023-03-07T11:22:24.807Z,20.42
2023-03-07T11:24:57.800Z,20.42
2023-03-07T11:27:37.777Z,18.13
2023-03-07T11:30:18.192Z,17.00
2023-03-07T11:32:53.037Z,16.20
2023-03-07T11:35:31.223Z,15.77
2023-03-07T11:38:08.843Z,18.85
2023-03-07T11:40:43.409Z,18.30
2023-03-07T11:43:21.784Z,15.65
2023-03-07T11:45:56.629Z,18.95
2023-03-07T11:48:40.625Z,20.33
2023-03-07T11:51:28.505Z,17.45
2023-03-07T11:54:08.913Z,15.50
2023-03-07T11:56:40.852Z,17.58
2023-03-07T12:00:01.624Z,14.82
2023-03-07T12:02:50.682Z,16.92
2023-03-07T12:05:34.103Z,15.57
2023-03-07T12:08:29.840Z,13.98
2023-03-07T12:11:08.799Z,16.08
2023-03-07T12:13:46.774Z,18.00
2023-03-07T12:16:27.044Z,15.45
2023-03-07T12:19:21.092Z,15.50
2023-03-07T12:22:05.349Z,13.57
2023-03-07T12:24:39.655Z,20.35
2023-03-07T12:27:14.108Z,15.68
2023-03-07T12:29:47.335Z,17.25
2023-03-07T12:32:19.871Z,19.70
2023-03-07T12:34:58.113Z,14.52
2023-03-07T12:37:31.988Z,14.38
2023-03-07T12:40:04.237Z,18.83
2023-03-07T12:42:39.602Z,16.58
2023-03-07T12:45:12.516Z,14.98
2023-03-07T12:47:57.039Z,12.10
2023-03-07T12:50:31.357Z,13.60
2023-03-07T12:53:03.846Z,11.80
2023-03-07T12:55:39.546Z,12.93
2023-03-07T12:58:14.389Z,13.45
2023-03-07T13:00:49.342Z,14.60
2023-03-07T13:03:24.643Z,17.65
2023-03-07T13:05:53.187Z,15.27
2023-03-07T13:08:24.597Z,17.67
2023-03-07T13:10:54.641Z,17.42
2023-03-07T13:13:58.457Z,63.45
2023-03-07T13:16:42.473Z,11.38
2023-03-07T13:19:43.825Z,21.25
2023-03-07T13:22:49.394Z,49.55
2023-03-07T13:25:57.420Z,14.23
2023-03-07T13:28:53.558Z,28.48
2023-03-07T13:31:45.592Z,11.63
2023-03-07T13:34:51.602Z,29.88
2023-03-07T13:37:54.335Z,12.32
2023-03-07T13:40:58.978Z,10.50
2023-03-07T13:44:03.165Z,13.85
2023-03-07T13:46:49.303Z,11.55
2023-03-07T13:49:45.836Z,11.65
2023-03-07T13:52:38.674Z,7.03
2023-03-07T13:55:24.664Z,11.45
2023-03-07T13:57:53.425Z,11.65
2023-03-07T14:00:32.795Z,15.55
2023-03-07T14:03:02.149Z,18.73
2023-03-07T14:05:33.158Z,14.20
2023-03-07T14:08:03.203Z,14.45
2023-03-07T14:10:32.817Z,17.58
2023-03-07T14:13:35.378Z,15.00
2023-03-07T14:16:26.570Z,11.75
2023-03-07T14:19:04.566Z,11.57
2023-03-07T14:21:46.260Z,12.18
2023-03-07T14:24:37.957Z,20.08
2023-03-07T14:27:12.148Z,12.57
2023-03-07T14:29:56.927Z,14.38
2023-03-07T14:32:30.080Z,9.38
2023-03-07T14:34:59.519Z,13.25
2023-03-07T14:37:29.474Z,17.15
2023-03-07T14:40:15.017Z,8.48
2023-03-07T14:42:49.232Z,11.52
2023-03-07T14:45:28.224Z,15.40
2023-03-07T14:48:16.398Z,27.73
2023-03-07T14:50:45.766Z,13.73
2023-03-07T14:53:19.631Z,16.27
2023-03-07T14:55:51.261Z,18.25
2023-03-07T14:58:23.120Z,18.67
2023-03-07T15:00:59.674Z,12.77
2023-03-07T15:03:35.076Z,11.70
2023-03-07T15:06:04.440Z,10.18
2023-03-07T15:08:35.231Z,18.83
2023-03-07T15:11:07.713Z,9.98
2023-03-07T15:13:39.691Z,12.40
2023-03-07T15:16:13.609Z,8.55
2023-03-07T15:18:55.884Z,13.18
2023-03-07T15:21:27.064Z,9.63
2023-03-07T15:23:57.895Z,11.70
2023-03-07T15:26:28.416Z,10.00
2023-03-07T15:29:02.266Z,10.00
2023-03-07T15:31:32.867Z,8.88
2023-03-07T15:34:21.423Z,17.15
2023-03-07T15:36:49.660Z,10.68
2023-03-07T15:39:31.302Z,12.82
2023-03-07T15:42:04.848Z,8.07
2023-03-07T15:44:33.631Z,11.27
2023-03-07T15:47:07.007Z,12.50
2023-03-07T15:49:43.300Z,13.05
2023-03-07T15:52:28.252Z,9.07
2023-03-07T15:54:58.547Z,18.50
2023-03-07T15:57:29.366Z,10.77
2023-03-07T16:00:00.465Z,8.10
2023-03-07T16:02:46.683Z,11.65
2023-03-07T16:05:37.363Z,9.25
2023-03-07T16:08:13.718Z,10.98
2023-03-07T16:10:54.837Z,6.30
2023-03-07T16:13:26.283Z,4.30
2023-03-07T16:16:06.989Z,3.97
2023-03-07T16:18:35.888Z,6.65
2023-03-07T16:21:05.791Z,4.90
2023-03-07T16:23:34.165Z,7.50
2023-03-07T16:26:07.070Z,3.40
2023-03-07T16:28:36.042Z,3.88
2023-03-07T16:31:04.319Z,9.98
2023-03-07T16:33:32.538Z,12.00
2023-03-07T16:36:00.871Z,9.55
2023-03-07T16:38:30.517Z,12.15
2023-03-07T16:40:59.445Z,13.35
2023-03-07T16:43:35.473Z,8.57
2023-03-07T16:46:06.608Z,8.73
2023-03-07T16:48:38.319Z,9.75
2023-03-07T16:51:07.488Z,9.85
2023-03-07T16:53:37.114Z,8.20
2023-03-07T16:56:05.575Z,7.53
2023-03-07T16:58:37.182Z,14.35
2023-03-07T17:01:06.416Z,49.10
2023-03-07T17:03:40.714Z,19.55
2023-03-07T17:06:13.509Z,19.00
2023-03-07T17:08:43.137Z,20.30
2023-03-07T17:11:19.960Z,42.50
2023-03-07T17:13:58.424Z,13.85
2023-03-07T17:16:28.138Z,12.88
2023-03-07T17:18:59.466Z,14.38
2023-03-07T17:21:32.293Z,8.15
2023-03-07T17:24:01.998Z,7.47
2023-03-07T17:26:36.554Z,7.97
2023-03-07T17:29:09.881Z,7.38
2023-03-07T17:31:38.165Z,7.60
2023-03-07T17:34:06.396Z,11.35
2023-03-07T17:36:34.979Z,11.52
2023-03-07T17:39:04.812Z,7.95
2023-03-07T17:41:33.038Z,10.82
2023-03-07T17:44:10.222Z,10.50
2023-03-07T17:46:38.489Z,10.43
2023-03-07T17:49:06.906Z,10.18
2023-03-07T17:51:35.230Z,12.23
2023-03-07T17:54:06.794Z,10.73
2023-03-07T17:56:35.060Z,9.38
2023-03-07T17:59:06.456Z,9.15
2023-03-07T18:01:36.469Z,7.90
2023-03-07T18:04:06.350Z,8.40
2023-03-07T18:06:36.739Z,10.75
2023-03-07T18:09:07.192Z,9.23
2023-03-07T18:11:35.679Z,8.55
2023-03-07T18:14:04.009Z,10.98
2023-03-07T18:16:32.778Z,10.10
2023-03-07T18:19:05.708Z,13.55
2023-03-07T18:21:35.146Z,7.30
2023-03-07T18:24:03.539Z,8.65
2023-03-07T18:26:33.178Z,12.93
2023-03-07T18:29:02.212Z,9.40
2023-03-07T18:31:30.604Z,9.45
2023-03-07T18:34:00.853Z,7.55
2023-03-07T18:36:29.069Z,5.75
2023-03-07T18:39:00.019Z,4.90
2023-03-07T18:41:29.104Z,3.15
2023-03-07T18:44:00.585Z,1.88
2023-03-07T18:46:33.142Z,2.33
2023-03-07T18:49:02.168Z,2.22
2023-03-07T18:51:30.550Z,2.55
2023-03-07T18:54:08.971Z,1.45
2023-03-07T18:56:37.234Z,1.65
2023-03-07T18:59:10.619Z,5.53
2023-03-07T19:01:41.972Z,3.00
2023-03-07T19:04:11.629Z,2.90
2023-03-07T19:06:42.074Z,2.28
2023-03-07T19:09:15.908Z,1.83
2023-03-07T19:11:50.443Z,2.00
2023-03-07T19:14:23.161Z,2.25
2023-03-07T19:16:51.709Z,3.67
2023-03-07T19:19:20.146Z,2.63
2023-03-07T19:21:48.412Z,17.02
2023-03-07T19:24:16.649Z,2.83
2023-03-07T19:26:44.879Z,4.70
2023-03-07T19:29:13.272Z,3.05
2023-03-07T19:31:44.594Z,3.30
2023-03-07T19:34:13.634Z,4.35
2023-03-07T19:36:51.251Z,4.05
2023-03-07T19:39:21.312Z,7.05
2023-03-07T19:41:52.293Z,3.40
2023-03-07T19:44:20.673Z,3.40
2023-03-07T19:46:50.357Z,3.58
2023-03-07T19:49:23.241Z,6.68
2023-03-07T19:51:54.950Z,4.18
2023-03-07T19:54:23.269Z,4.60
2023-03-07T19:57:06.874Z,3.38
2023-03-07T19:59:41.268Z,3.25
2023-03-07T20:02:13.950Z,6.63
2023-03-07T20:04:53.059Z,3.00
2023-03-07T20:07:21.555Z,1.80
2023-03-07T20:09:57.886Z,1.90
2023-03-07T20:12:26.318Z,1.73
2023-03-07T20:14:54.678Z,3.05
2023-03-07T20:17:24.639Z,2.60
2023-03-07T20:19:53.494Z,1.60
2023-03-07T20:22:24.487Z,1.60
2023-03-07T20:24:53.147Z,1.80
2023-03-07T20:27:25.056Z,2.55
2023-03-07T20:29:57.573Z,1.40
2023-03-07T20:32:36.541Z,1.60
2023-03-07T20:35:05.595Z,1.65
2023-03-07T20:37:36.016Z,2.65
2023-03-07T20:40:08.354Z,1.52
2023-03-07T20:42:42.053Z,1.60
2023-03-07T20:45:11.839Z,1.60
2023-03-07T20:47:41.597Z,1.80
2023-03-07T20:50:11.541Z,1.73
2023-03-07T20:52:39.903Z,1.48
2023-03-07T20:55:12.027Z,1.63
2023-03-07T20:57:41.177Z,1.30
2023-03-07T21:00:10.844Z,1.63
2023-03-07T21:02:39.720Z,1.95
2023-03-07T21:05:10.054Z,1.70
2023-03-07T21:07:38.334Z,1.50
2023-03-07T21:10:07.057Z,1.55
2023-03-07T21:12:36.207Z,1.60
2023-03-07T21:15:04.673Z,1.80
2023-03-07T21:17:36.185Z,1.75
2023-03-07T21:20:09.590Z,1.98
2023-03-07T21:22:37.786Z,17.13
2023-03-07T21:25:06.803Z,1.95
2023-03-07T21:27:35.093Z,1.90
2023-03-07T21:30:04.537Z,1.90
2023-03-07T21:32:32.824Z,1.90
2023-03-07T21:35:04.281Z,1.98
2023-03-07T21:37:35.322Z,3.08
2023-03-07T21:40:05.253Z,1.80
2023-03-07T21:42:34.369Z,2.10
2023-03-07T21:45:02.625Z,1.80
2023-03-07T21:47:30.999Z,2.38
2023-03-07T21:49:59.254Z,3.03
2023-03-07T21:52:29.140Z,2.28
2023-03-07T21:54:58.789Z,1.88
2023-03-07T21:57:29.242Z,2.80
2023-03-07T21:59:57.467Z,14.88
2023-03-07T22:02:25.744Z,3.05
2023-03-07T22:04:53.973Z,18.65
2023-03-07T22:07:22.228Z,27.90
2023-03-07T22:09:50.455Z,19.33
2023-03-07T22:12:20.076Z,7.50
2023-03-07T22:14:51.628Z,2.58
2023-03-07T22:17:19.853Z,5.70
2023-03-07T22:19:48.078Z,3.90
2023-03-07T22:22:16.297Z,4.32
2023-03-07T22:24:44.554Z,2.90
2023-03-07T22:27:12.891Z,2.10
2023-03-07T22:29:42.572Z,2.28
2023-03-07T22:32:10.930Z,2.08
2023-03-07T22:34:39.360Z,2.30
2023-03-07T22:37:07.625Z,2.63
2023-03-07T22:39:36.087Z,1.65
2023-03-07T22:42:04.444Z,2.78
2023-03-07T22:44:32.677Z,1.85
2023-03-07T22:47:02.336Z,1.45
2023-03-07T22:49:33.868Z,2.08
2023-03-07T22:52:02.181Z,1.65
2023-03-07T22:54:30.487Z,1.75
2023-03-07T22:56:58.825Z,2.05
2023-03-07T22:59:27.098Z,2.30
2023-03-07T23:01:55.352Z,3.92
2023-03-07T23:04:25.126Z,1.90
2023-03-07T23:06:53.358Z,2.70
2023-03-07T23:09:21.706Z,2.20
2023-03-07T23:11:49.978Z,2.40
2023-03-07T23:14:18.265Z,2.28
2023-03-07T23:16:46.516Z,3.70
2023-03-07T23:19:14.770Z,1.95
2023-03-07T23:21:44.518Z,2.97
2023-03-07T23:24:15.243Z,1.98
2023-03-07T23:26:43.503Z,3.60
2023-03-07T23:29:11.917Z,2.33
2023-03-07T23:31:42.802Z,3.97
2023-03-07T23:34:16.213Z,4.35
2023-03-07T23:36:46.076Z,2.45
2023-03-07T23:39:17.340Z,2.38
2023-03-07T23:41:46.215Z,3.13
2023-03-07T23:44:14.496Z,2.88
2023-03-07T23:46:42.757Z,2.10
2023-03-07T23:49:11.646Z,2.10
2023-03-07T23:51:39.962Z,2.40
2023-03-07T23:54:09.680Z,2.75
2023-03-07T23:56:37.960Z,2.67
2023-03-07T23:59:06.398Z,2.40
